Tilghman, MD

7:01 PM EDT on August 21, 2019 (GMT -0400)
Black Walnut Point Rd. | | Change Station
Active Advisory: Severe Thunderstorm Watch

Elev 5 ft 38.69 °N, 76.34 °W | Updated 25 seconds ago

Partly Cloudy
Partly Cloudy
83.9 °F
Feels Like 94 °F
N
0
Wind Variable Wind from South
Gusts 9.0 mph

Today
High -- | Low -- °F
--% Chance of Precip.
Yesterday
High -- | Low -- °F
Precip. -- in
Pressure 29.92 in
Visibility 10.0 miles
Clouds Scattered Clouds 3500 ft
Heat Index 94 °F
Dew Point 78 °F
Humidity 82%
Rainfall 0.00 in
Snow Depth Not available.
6:24 AM 7:51 PM
Waning Gibbous, 66% visible
METAR KESN 212250Z 18009KT 10SM SCT035 30/23 A2992
Pressure 29.92 in
Visibility 10.0 miles
Clouds Scattered Clouds 3500 ft
Heat Index 94 °F
Dew Point 78 °F
Humidity 82%
Rainfall 0.00 in
Snow Depth Not available.
6:24 AM 7:51 PM
Waning Gibbous, 66% visible
METAR KESN 212250Z 18009KT 10SM SCT035 30/23 A2992

Get Your Daily Forecast Email!

Thanks for signing up!

Be on the lookout for a verification email in your inbox.

You'll start receiving severe weather alerts in your inbox..

×

10-Day Weather Forecast

Almanac

Astronomy

Aug. 21, 2019 Rise Set
Actual Time
Civil Twilight
Nautical Twilight
Astronomical Twilight
Moon
Length of Visible Light
Length of Day
Tomorrow will be .
, % of the Moon is Illuminated

Today's Extremes

State Highs State Lows

Community

WunderPhotos

Category 6

Welcome to Category 6. This is the collective home for Weather Underground's featured writeups by Dr. Jeff Masters (right), Bob Henson (left), Chris Burt, and other regular contributors.

Nearby

Air Quality

  Air Quality AQ Index Pollutant
Not available.

Snow Depth

Station Depth Elevation

Earthquake Activity

City Distance Mag. Time & Date
Minimum magnitude displayed is 2.5.

Coastal Water Temperatures

Place Temperature

Stations

Nearby Weather Stations

Station Location Temp. Windchill Dew Point Humidity Wind Precip. Elev Updated Type
                   

Watches & Warnings

Severe Thunderstorm Watch
Issued: 6:53 PM EDT Aug. 21, 2019 – National Weather Service

Severe Thunderstorm Watch 610 remains in effect until 1000 PM EDT

MD
. Maryland counties included are

Anne Arundel Baltimore Calvert
Caroline Cecil Charles
Harford Kent Prince Georges
Queen Anne's Talbot


Maryland independent cities included are

Baltimore City